Portada
METAR-TAF:

METAR-TAF

Aeroports :

Bandar Abbas, Iran

latitud: 27-13N, longitud: 056-22E, altitud: 10 m

Observació

L'informe es va fer fa 14 minuts, a les 13:00 UTC
Vent 10 kt del Sud/Sud-Oest
Temperatura 37°C
Humitat 60%
Pressió 994 hPa
Visibilitat: 6000 m

METAR: OIKB 081300Z 20010KT 6000 NSC 37/28 Q0993 A2934 NOSIG

Hora: 17:44 (13:14 UTC)

Pronòstic

L'informe es va fer fa 1 hora i 24 minuts, a les 11:50 UTC
Pronòstic vàlid del 08 a les 12 UTC al 09 a les 18 UTC
Vent 8 kt del Est/Sud-Est
Visibilitat: 5000 m
Escasses núvols a una alçada de 3000 ft
calitja
Temporalment
l' 08 a les 12 UTC al 08 a les 15 UTC
Vent 16 kt del Sud/Sud-Oest
Temporalment
l' 08 a les 21 UTC al 09 a les 04 UTC
Visibilitat: 3000 m
Núvols disperses a una alçada de 2500 ft
boirina
Temporalment
l' 09 a les 08 UTC al 09 a les 14 UTC
Vent 16 kt del Sud/Sud-Oest

TAF: OIKB 081150Z 0812/0918 12008KT 5000 HZ FEW030 TEMPO 0812/0815 20016KT TEMPO 0821/0904 3000 BR SCT025 TEMPO 0908/0914 20016KT

Observacions i pronòstics meteorològics de més de 4000 aeroports (METAR i TAF).

Les estacions disponibles són els punts grocs i vermells al mapa.

Posi el ratolí al punt desitjat per veure el nom de l'estació.

Feu clic per veure les observacions i els pronòstics meteorològics.

Per canviar el mapa: feu clic els botons verds amb una creu de color negre per apropar; al botó verd amb un guió per allunyar la imatge; o en les fletxes verdes per a mapes adjacents.


METAR-TAF: